sensor_id;sensor_type;location;lat;lon;timestamp;P1;durP1;ratioP1;P2;durP2;ratioP2
26082;SDS011;13848;49.018;12.078;2022-12-07T00:00:32;6.55;;;4.30;;
26082;SDS011;13848;49.018;12.078;2022-12-07T00:02:58;6.97;;;4.10;;
26082;SDS011;13848;49.018;12.078;2022-12-07T00:05:24;7.18;;;4.18;;
26082;SDS011;13848;49.018;12.078;2022-12-07T00:07:50;6.68;;;4.22;;
26082;SDS011;13848;49.018;12.078;2022-12-07T00:10:16;6.75;;;4.30;;
26082;SDS011;13848;49.018;12.078;2022-12-07T00:12:43;6.05;;;4.65;;
26082;SDS011;13848;49.018;12.078;2022-12-07T00:15:09;5.78;;;4.13;;
26082;SDS011;13848;49.018;12.078;2022-12-07T00:17:35;7.88;;;4.22;;
26082;SDS011;13848;49.018;12.078;2022-12-07T00:20:01;6.63;;;4.13;;
26082;SDS011;13848;49.018;12.078;2022-12-07T00:22:28;5.55;;;3.67;;
26082;SDS011;13848;49.018;12.078;2022-12-07T00:24:54;5.22;;;3.92;;
26082;SDS011;13848;49.018;12.078;2022-12-07T00:27:20;5.10;;;3.63;;
26082;SDS011;13848;49.018;12.078;2022-12-07T00:29:47;5.80;;;4.15;;
26082;SDS011;13848;49.018;12.078;2022-12-07T00:32:13;5.35;;;3.97;;
26082;SDS011;13848;49.018;12.078;2022-12-07T00:34:39;7.40;;;4.18;;
26082;SDS011;13848;49.018;12.078;2022-12-07T00:37:05;5.60;;;3.95;;
26082;SDS011;13848;49.018;12.078;2022-12-07T00:39:31;6.68;;;4.25;;
26082;SDS011;13848;49.018;12.078;2022-12-07T00:41:57;5.05;;;3.78;;
26082;SDS011;13848;49.018;12.078;2022-12-07T00:44:23;5.65;;;3.88;;
26082;SDS011;13848;49.018;12.078;2022-12-07T00:46:51;6.07;;;4.07;;
26082;SDS011;13848;49.018;12.078;2022-12-07T00:49:17;6.30;;;4.05;;
26082;SDS011;13848;49.018;12.078;2022-12-07T00:51:43;5.47;;;3.92;;
26082;SDS011;13848;49.018;12.078;2022-12-07T00:54:09;7.07;;;4.43;;
26082;SDS011;13848;49.018;12.078;2022-12-07T00:56:35;7.05;;;4.60;;
26082;SDS011;13848;49.018;12.078;2022-12-07T00:59:02;5.30;;;4.07;;
26082;SDS011;13848;49.018;12.078;2022-12-07T01:01:30;6.97;;;4.47;;
26082;SDS011;13848;49.018;12.078;2022-12-07T01:03:58;5.72;;;4.05;;
26082;SDS011;13848;49.018;12.078;2022-12-07T01:06:25;6.07;;;4.10;;
26082;SDS011;13848;49.018;12.078;2022-12-07T01:08:51;5.80;;;4.22;;
26082;SDS011;13848;49.018;12.078;2022-12-07T01:11:18;7.07;;;4.40;;
26082;SDS011;13848;49.018;12.078;2022-12-07T01:13:46;7.38;;;4.38;;
26082;SDS011;13848;49.018;12.078;2022-12-07T01:16:13;6.20;;;4.22;;
26082;SDS011;13848;49.018;12.078;2022-12-07T01:18:41;6.75;;;4.80;;
26082;SDS011;13848;49.018;12.078;2022-12-07T01:21:09;8.70;;;5.07;;
26082;SDS011;13848;49.018;12.078;2022-12-07T01:23:38;7.03;;;5.10;;
26082;SDS011;13848;49.018;12.078;2022-12-07T01:26:05;7.03;;;4.70;;
26082;SDS011;13848;49.018;12.078;2022-12-07T01:28:33;6.95;;;4.80;;
26082;SDS011;13848;49.018;12.078;2022-12-07T01:31:06;5.18;;;4.22;;
26082;SDS011;13848;49.018;12.078;2022-12-07T01:33:34;5.70;;;4.30;;
26082;SDS011;13848;49.018;12.078;2022-12-07T01:36:02;6.03;;;4.55;;
26082;SDS011;13848;49.018;12.078;2022-12-07T01:38:30;6.25;;;4.45;;
26082;SDS011;13848;49.018;12.078;2022-12-07T01:40:57;6.65;;;4.60;;
26082;SDS011;13848;49.018;12.078;2022-12-07T01:43:24;5.28;;;3.97;;
26082;SDS011;13848;49.018;12.078;2022-12-07T01:45:52;6.28;;;4.60;;
26082;SDS011;13848;49.018;12.078;2022-12-07T01:48:19;6.63;;;4.75;;
26082;SDS011;13848;49.018;12.078;2022-12-07T01:50:48;9.07;;;4.63;;
26082;SDS011;13848;49.018;12.078;2022-12-07T01:53:17;6.57;;;4.90;;
26082;SDS011;13848;49.018;12.078;2022-12-07T01:55:45;6.72;;;4.45;;
26082;SDS011;13848;49.018;12.078;2022-12-07T01:58:16;6.25;;;4.70;;
26082;SDS011;13848;49.018;12.078;2022-12-07T02:00:42;7.43;;;4.93;;
26082;SDS011;13848;49.018;12.078;2022-12-07T02:03:09;6.22;;;4.82;;
26082;SDS011;13848;49.018;12.078;2022-12-07T02:05:40;6.88;;;4.85;;
26082;SDS011;13848;49.018;12.078;2022-12-07T02:08:06;7.93;;;5.47;;
26082;SDS011;13848;49.018;12.078;2022-12-07T02:10:33;7.82;;;5.28;;
26082;SDS011;13848;49.018;12.078;2022-12-07T02:13:01;6.43;;;4.60;;
26082;SDS011;13848;49.018;12.078;2022-12-07T02:15:34;7.70;;;5.18;;
26082;SDS011;13848;49.018;12.078;2022-12-07T02:18:12;10.13;;;5.38;;
26082;SDS011;13848;49.018;12.078;2022-12-07T02:20:46;7.30;;;5.20;;
26082;SDS011;13848;49.018;12.078;2022-12-07T02:23:41;6.00;;;4.47;;
26082;SDS011;13848;49.018;12.078;2022-12-07T02:26:28;7.13;;;5.18;;
26082;SDS011;13848;49.018;12.078;2022-12-07T02:29:23;7.10;;;4.88;;
26082;SDS011;13848;49.018;12.078;2022-12-07T02:34:24;8.98;;;4.85;;
26082;SDS011;13848;49.018;12.078;2022-12-07T02:36:56;6.63;;;4.85;;
26082;SDS011;13848;49.018;12.078;2022-12-07T02:39:31;6.50;;;5.13;;
26082;SDS011;13848;49.018;12.078;2022-12-07T02:42:02;7.40;;;5.22;;
26082;SDS011;13848;49.018;12.078;2022-12-07T02:44:39;10.13;;;5.40;;
26082;SDS011;13848;49.018;12.078;2022-12-07T02:47:06;7.60;;;5.88;;
26082;SDS011;13848;49.018;12.078;2022-12-07T02:49:35;8.20;;;5.22;;
26082;SDS011;13848;49.018;12.078;2022-12-07T02:52:03;6.78;;;4.75;;
26082;SDS011;13848;49.018;12.078;2022-12-07T02:54:29;6.38;;;4.05;;
26082;SDS011;13848;49.018;12.078;2022-12-07T02:56:56;6.15;;;3.78;;
26082;SDS011;13848;49.018;12.078;2022-12-07T02:59:33;5.13;;;3.65;;
26082;SDS011;13848;49.018;12.078;2022-12-07T03:02:14;4.95;;;3.90;;
26082;SDS011;13848;49.018;12.078;2022-12-07T03:04:50;5.60;;;3.97;;
26082;SDS011;13848;49.018;12.078;2022-12-07T03:07:25;7.32;;;5.07;;
26082;SDS011;13848;49.018;12.078;2022-12-07T03:09:59;7.10;;;4.70;;
26082;SDS011;13848;49.018;12.078;2022-12-07T03:12:35;6.97;;;5.00;;
26082;SDS011;13848;49.018;12.078;2022-12-07T03:15:10;6.18;;;4.53;;
26082;SDS011;13848;49.018;12.078;2022-12-07T03:17:41;10.85;;;5.68;;
26082;SDS011;13848;49.018;12.078;2022-12-07T03:20:12;7.88;;;5.20;;
26082;SDS011;13848;49.018;12.078;2022-12-07T03:22:41;9.07;;;5.38;;
26082;SDS011;13848;49.018;12.078;2022-12-07T03:25:10;9.30;;;5.43;;
26082;SDS011;13848;49.018;12.078;2022-12-07T03:27:39;7.95;;;5.68;;
26082;SDS011;13848;49.018;12.078;2022-12-07T03:30:11;9.00;;;5.90;;
26082;SDS011;13848;49.018;12.078;2022-12-07T03:32:42;8.65;;;5.78;;
26082;SDS011;13848;49.018;12.078;2022-12-07T03:35:11;9.10;;;5.85;;
26082;SDS011;13848;49.018;12.078;2022-12-07T03:40:12;8.88;;;6.05;;
26082;SDS011;13848;49.018;12.078;2022-12-07T03:42:42;8.77;;;6.15;;
26082;SDS011;13848;49.018;12.078;2022-12-07T03:45:09;9.85;;;6.47;;
26082;SDS011;13848;49.018;12.078;2022-12-07T03:47:37;9.77;;;5.82;;
26082;SDS011;13848;49.018;12.078;2022-12-07T03:50:13;8.77;;;5.60;;
26082;SDS011;13848;49.018;12.078;2022-12-07T03:52:47;8.48;;;5.63;;
26082;SDS011;13848;49.018;12.078;2022-12-07T03:55:20;8.32;;;5.57;;
26082;SDS011;13848;49.018;12.078;2022-12-07T04:00:20;10.45;;;6.50;;
26082;SDS011;13848;49.018;12.078;2022-12-07T04:02:52;10.65;;;6.20;;
26082;SDS011;13848;49.018;12.078;2022-12-07T04:05:18;9.10;;;5.80;;
26082;SDS011;13848;49.018;12.078;2022-12-07T04:07:44;8.77;;;5.80;;
26082;SDS011;13848;49.018;12.078;2022-12-07T04:10:11;8.10;;;6.05;;
26082;SDS011;13848;49.018;12.078;2022-12-07T04:12:37;9.93;;;6.22;;
26082;SDS011;13848;49.018;12.078;2022-12-07T04:15:03;9.00;;;6.57;;
26082;SDS011;13848;49.018;12.078;2022-12-07T04:17:30;8.77;;;6.30;;
26082;SDS011;13848;49.018;12.078;2022-12-07T04:19:57;9.20;;;6.38;;
26082;SDS011;13848;49.018;12.078;2022-12-07T04:22:23;11.65;;;6.90;;
26082;SDS011;13848;49.018;12.078;2022-12-07T04:24:49;10.05;;;6.60;;
26082;SDS011;13848;49.018;12.078;2022-12-07T04:27:15;9.70;;;6.30;;
26082;SDS011;13848;49.018;12.078;2022-12-07T04:29:41;10.63;;;6.47;;
26082;SDS011;13848;49.018;12.078;2022-12-07T04:32:07;10.85;;;7.28;;
26082;SDS011;13848;49.018;12.078;2022-12-07T04:34:33;10.43;;;6.88;;
26082;SDS011;13848;49.018;12.078;2022-12-07T04:37:00;11.30;;;6.80;;
26082;SDS011;13848;49.018;12.078;2022-12-07T04:39:27;9.93;;;6.63;;
26082;SDS011;13848;49.018;12.078;2022-12-07T04:41:55;10.07;;;6.78;;
26082;SDS011;13848;49.018;12.078;2022-12-07T04:44:22;12.55;;;6.88;;
26082;SDS011;13848;49.018;12.078;2022-12-07T04:46:49;10.57;;;6.40;;
26082;SDS011;13848;49.018;12.078;2022-12-07T04:49:15;11.60;;;6.78;;
26082;SDS011;13848;49.018;12.078;2022-12-07T04:51:42;10.20;;;6.25;;
26082;SDS011;13848;49.018;12.078;2022-12-07T04:54:09;11.38;;;7.15;;
26082;SDS011;13848;49.018;12.078;2022-12-07T04:56:36;10.43;;;7.03;;
26082;SDS011;13848;49.018;12.078;2022-12-07T04:59:02;13.27;;;6.72;;
26082;SDS011;13848;49.018;12.078;2022-12-07T05:01:29;10.88;;;7.25;;
26082;SDS011;13848;49.018;12.078;2022-12-07T05:03:56;12.55;;;7.53;;
26082;SDS011;13848;49.018;12.078;2022-12-07T05:06:22;11.00;;;7.13;;
26082;SDS011;13848;49.018;12.078;2022-12-07T05:08:48;9.38;;;7.03;;
26082;SDS011;13848;49.018;12.078;2022-12-07T05:11:15;9.93;;;6.82;;
26082;SDS011;13848;49.018;12.078;2022-12-07T05:13:41;10.35;;;7.03;;
26082;SDS011;13848;49.018;12.078;2022-12-07T05:16:07;10.32;;;6.53;;
26082;SDS011;13848;49.018;12.078;2022-12-07T05:18:33;10.93;;;6.72;;
26082;SDS011;13848;49.018;12.078;2022-12-07T05:20:59;10.65;;;6.80;;
26082;SDS011;13848;49.018;12.078;2022-12-07T05:23:25;10.57;;;6.82;;
26082;SDS011;13848;49.018;12.078;2022-12-07T05:25:51;11.48;;;7.40;;
26082;SDS011;13848;49.018;12.078;2022-12-07T05:28:18;10.15;;;6.75;;
26082;SDS011;13848;49.018;12.078;2022-12-07T05:30:45;10.90;;;7.57;;
26082;SDS011;13848;49.018;12.078;2022-12-07T05:33:11;11.30;;;7.30;;
26082;SDS011;13848;49.018;12.078;2022-12-07T05:35:37;11.60;;;7.35;;
26082;SDS011;13848;49.018;12.078;2022-12-07T05:38:03;12.73;;;7.82;;
26082;SDS011;13848;49.018;12.078;2022-12-07T05:40:29;11.30;;;7.38;;
26082;SDS011;13848;49.018;12.078;2022-12-07T05:42:55;10.93;;;7.00;;
26082;SDS011;13848;49.018;12.078;2022-12-07T05:45:22;12.00;;;6.72;;
26082;SDS011;13848;49.018;12.078;2022-12-07T05:47:48;9.77;;;6.80;;
26082;SDS011;13848;49.018;12.078;2022-12-07T05:50:14;9.32;;;6.50;;
26082;SDS011;13848;49.018;12.078;2022-12-07T05:52:40;10.48;;;6.80;;
26082;SDS011;13848;49.018;12.078;2022-12-07T05:55:06;11.80;;;7.43;;
26082;SDS011;13848;49.018;12.078;2022-12-07T05:57:33;19.40;;;9.65;;
26082;SDS011;13848;49.018;12.078;2022-12-07T05:59:59;13.73;;;8.02;;
26082;SDS011;13848;49.018;12.078;2022-12-07T06:02:26;11.52;;;7.28;;
26082;SDS011;13848;49.018;12.078;2022-12-07T06:04:52;10.68;;;7.32;;
26082;SDS011;13848;49.018;12.078;2022-12-07T06:07:18;13.23;;;7.60;;
26082;SDS011;13848;49.018;12.078;2022-12-07T06:09:44;12.48;;;7.75;;
26082;SDS011;13848;49.018;12.078;2022-12-07T06:12:11;11.90;;;7.13;;
26082;SDS011;13848;49.018;12.078;2022-12-07T06:14:37;12.98;;;7.72;;
26082;SDS011;13848;49.018;12.078;2022-12-07T06:17:04;11.85;;;7.22;;
26082;SDS011;13848;49.018;12.078;2022-12-07T06:19:32;11.73;;;7.32;;
26082;SDS011;13848;49.018;12.078;2022-12-07T06:21:58;11.73;;;7.30;;
26082;SDS011;13848;49.018;12.078;2022-12-07T06:24:25;13.60;;;7.15;;
26082;SDS011;13848;49.018;12.078;2022-12-07T06:26:51;13.77;;;7.57;;
26082;SDS011;13848;49.018;12.078;2022-12-07T06:29:18;10.52;;;7.18;;
26082;SDS011;13848;49.018;12.078;2022-12-07T06:31:44;24.40;;;11.38;;
26082;SDS011;13848;49.018;12.078;2022-12-07T06:34:12;14.85;;;7.68;;
26082;SDS011;13848;49.018;12.078;2022-12-07T06:36:40;15.50;;;7.65;;
26082;SDS011;13848;49.018;12.078;2022-12-07T06:39:06;13.38;;;7.35;;
26082;SDS011;13848;49.018;12.078;2022-12-07T06:41:33;12.27;;;7.53;;
26082;SDS011;13848;49.018;12.078;2022-12-07T06:43:58;15.73;;;8.48;;
26082;SDS011;13848;49.018;12.078;2022-12-07T06:46:24;11.75;;;7.55;;
26082;SDS011;13848;49.018;12.078;2022-12-07T06:48:51;15.98;;;8.07;;
26082;SDS011;13848;49.018;12.078;2022-12-07T06:51:17;15.32;;;7.55;;
26082;SDS011;13848;49.018;12.078;2022-12-07T06:53:45;16.80;;;7.55;;
26082;SDS011;13848;49.018;12.078;2022-12-07T06:56:11;12.68;;;7.30;;
26082;SDS011;13848;49.018;12.078;2022-12-07T06:58:37;12.88;;;8.10;;
26082;SDS011;13848;49.018;12.078;2022-12-07T07:01:08;13.88;;;7.85;;
26082;SDS011;13848;49.018;12.078;2022-12-07T07:03:34;12.23;;;7.63;;
26082;SDS011;13848;49.018;12.078;2022-12-07T07:06:00;13.20;;;7.90;;
26082;SDS011;13848;49.018;12.078;2022-12-07T07:08:26;12.82;;;7.78;;
26082;SDS011;13848;49.018;12.078;2022-12-07T07:10:54;12.45;;;8.25;;
26082;SDS011;13848;49.018;12.078;2022-12-07T07:13:19;12.98;;;7.65;;
26082;SDS011;13848;49.018;12.078;2022-12-07T07:15:45;13.27;;;8.20;;
26082;SDS011;13848;49.018;12.078;2022-12-07T07:18:11;14.55;;;8.20;;
26082;SDS011;13848;49.018;12.078;2022-12-07T07:20:38;13.13;;;8.00;;
26082;SDS011;13848;49.018;12.078;2022-12-07T07:23:04;14.82;;;8.50;;
26082;SDS011;13848;49.018;12.078;2022-12-07T07:25:30;12.85;;;8.23;;
26082;SDS011;13848;49.018;12.078;2022-12-07T07:27:58;12.98;;;7.90;;
26082;SDS011;13848;49.018;12.078;2022-12-07T07:30:24;11.43;;;7.47;;
26082;SDS011;13848;49.018;12.078;2022-12-07T07:32:51;12.52;;;8.20;;
26082;SDS011;13848;49.018;12.078;2022-12-07T07:35:16;13.45;;;8.07;;
26082;SDS011;13848;49.018;12.078;2022-12-07T07:37:43;14.35;;;8.55;;
26082;SDS011;13848;49.018;12.078;2022-12-07T07:40:09;15.25;;;8.55;;
26082;SDS011;13848;49.018;12.078;2022-12-07T07:42:36;18.33;;;8.68;;
26082;SDS011;13848;49.018;12.078;2022-12-07T07:45:03;13.45;;;8.38;;
26082;SDS011;13848;49.018;12.078;2022-12-07T07:47:30;15.15;;;8.55;;
26082;SDS011;13848;49.018;12.078;2022-12-07T07:49:56;15.02;;;8.73;;
26082;SDS011;13848;49.018;12.078;2022-12-07T07:52:21;16.70;;;8.70;;
26082;SDS011;13848;49.018;12.078;2022-12-07T07:54:47;14.55;;;8.57;;
26082;SDS011;13848;49.018;12.078;2022-12-07T07:57:13;14.27;;;8.55;;
26082;SDS011;13848;49.018;12.078;2022-12-07T07:59:41;15.18;;;8.80;;
26082;SDS011;13848;49.018;12.078;2022-12-07T08:02:09;15.10;;;8.20;;
26082;SDS011;13848;49.018;12.078;2022-12-07T08:04:40;13.45;;;8.50;;
26082;SDS011;13848;49.018;12.078;2022-12-07T08:07:06;15.15;;;8.00;;
26082;SDS011;13848;49.018;12.078;2022-12-07T08:09:32;13.80;;;8.63;;
26082;SDS011;13848;49.018;12.078;2022-12-07T08:11:58;14.05;;;8.65;;
26082;SDS011;13848;49.018;12.078;2022-12-07T08:14:24;15.00;;;8.25;;
26082;SDS011;13848;49.018;12.078;2022-12-07T08:16:50;15.05;;;8.57;;
26082;SDS011;13848;49.018;12.078;2022-12-07T08:19:17;14.32;;;8.45;;
26082;SDS011;13848;49.018;12.078;2022-12-07T08:21:43;15.55;;;8.02;;
26082;SDS011;13848;49.018;12.078;2022-12-07T08:24:09;14.88;;;8.40;;
26082;SDS011;13848;49.018;12.078;2022-12-07T08:26:35;13.30;;;7.65;;
26082;SDS011;13848;49.018;12.078;2022-12-07T08:29:01;19.20;;;8.55;;
26082;SDS011;13848;49.018;12.078;2022-12-07T08:31:27;18.70;;;8.13;;
26082;SDS011;13848;49.018;12.078;2022-12-07T08:33:53;12.48;;;7.80;;
26082;SDS011;13848;49.018;12.078;2022-12-07T08:36:21;12.30;;;7.70;;
26082;SDS011;13848;49.018;12.078;2022-12-07T08:38:47;13.65;;;8.25;;
26082;SDS011;13848;49.018;12.078;2022-12-07T08:41:13;12.10;;;7.72;;
26082;SDS011;13848;49.018;12.078;2022-12-07T08:43:39;14.65;;;8.05;;
26082;SDS011;13848;49.018;12.078;2022-12-07T08:46:06;14.40;;;8.32;;
26082;SDS011;13848;49.018;12.078;2022-12-07T08:48:36;13.52;;;7.78;;
26082;SDS011;13848;49.018;12.078;2022-12-07T08:51:05;12.77;;;7.88;;
26082;SDS011;13848;49.018;12.078;2022-12-07T08:53:33;11.98;;;7.53;;
26082;SDS011;13848;49.018;12.078;2022-12-07T08:56:00;14.93;;;8.25;;
26082;SDS011;13848;49.018;12.078;2022-12-07T08:58:27;14.45;;;8.38;;
26082;SDS011;13848;49.018;12.078;2022-12-07T09:00:53;14.18;;;7.60;;
26082;SDS011;13848;49.018;12.078;2022-12-07T09:03:19;15.50;;;7.40;;
26082;SDS011;13848;49.018;12.078;2022-12-07T09:05:45;12.63;;;7.40;;
26082;SDS011;13848;49.018;12.078;2022-12-07T09:08:11;13.35;;;7.15;;
26082;SDS011;13848;49.018;12.078;2022-12-07T09:10:39;11.90;;;7.63;;
26082;SDS011;13848;49.018;12.078;2022-12-07T09:13:05;11.65;;;6.63;;
26082;SDS011;13848;49.018;12.078;2022-12-07T09:15:31;13.20;;;7.63;;
26082;SDS011;13848;49.018;12.078;2022-12-07T09:17:57;12.95;;;7.30;;
26082;SDS011;13848;49.018;12.078;2022-12-07T09:20:23;11.90;;;7.32;;
26082;SDS011;13848;49.018;12.078;2022-12-07T09:22:49;15.27;;;7.00;;
26082;SDS011;13848;49.018;12.078;2022-12-07T09:25:15;14.27;;;7.68;;
26082;SDS011;13848;49.018;12.078;2022-12-07T09:27:43;12.48;;;7.13;;
26082;SDS011;13848;49.018;12.078;2022-12-07T09:30:09;11.25;;;7.03;;
26082;SDS011;13848;49.018;12.078;2022-12-07T09:32:35;11.93;;;7.47;;
26082;SDS011;13848;49.018;12.078;2022-12-07T09:35:01;16.50;;;7.72;;
26082;SDS011;13848;49.018;12.078;2022-12-07T09:37:27;13.40;;;8.00;;
26082;SDS011;13848;49.018;12.078;2022-12-07T09:39:53;13.85;;;6.50;;
26082;SDS011;13848;49.018;12.078;2022-12-07T09:42:25;11.63;;;6.80;;
26082;SDS011;13848;49.018;12.078;2022-12-07T09:44:55;12.98;;;7.32;;
26082;SDS011;13848;49.018;12.078;2022-12-07T09:47:41;11.10;;;6.90;;
26082;SDS011;13848;49.018;12.078;2022-12-07T09:50:11;13.90;;;7.50;;
26082;SDS011;13848;49.018;12.078;2022-12-07T09:52:39;14.38;;;7.00;;
26082;SDS011;13848;49.018;12.078;2022-12-07T09:55:10;11.70;;;6.55;;
26082;SDS011;13848;49.018;12.078;2022-12-07T09:57:38;13.10;;;7.00;;
26082;SDS011;13848;49.018;12.078;2022-12-07T10:00:10;12.45;;;7.40;;
26082;SDS011;13848;49.018;12.078;2022-12-07T10:02:39;13.25;;;7.75;;
26082;SDS011;13848;49.018;12.078;2022-12-07T10:05:06;13.23;;;7.50;;
26082;SDS011;13848;49.018;12.078;2022-12-07T10:07:37;13.30;;;7.75;;
26082;SDS011;13848;49.018;12.078;2022-12-07T10:10:03;13.40;;;7.60;;
26082;SDS011;13848;49.018;12.078;2022-12-07T10:12:35;12.82;;;7.15;;
26082;SDS011;13848;49.018;12.078;2022-12-07T10:15:20;12.45;;;7.30;;
26082;SDS011;13848;49.018;12.078;2022-12-07T10:17:47;12.15;;;7.25;;
26082;SDS011;13848;49.018;12.078;2022-12-07T10:20:20;11.68;;;6.80;;
26082;SDS011;13848;49.018;12.078;2022-12-07T10:22:55;12.45;;;7.13;;
26082;SDS011;13848;49.018;12.078;2022-12-07T10:25:23;12.18;;;6.68;;
26082;SDS011;13848;49.018;12.078;2022-12-07T10:30:49;14.90;;;6.80;;
26082;SDS011;13848;49.018;12.078;2022-12-07T10:36:16;11.13;;;6.63;;
26082;SDS011;13848;49.018;12.078;2022-12-07T10:38:45;12.20;;;6.72;;
26082;SDS011;13848;49.018;12.078;2022-12-07T10:41:12;10.48;;;6.40;;
26082;SDS011;13848;49.018;12.078;2022-12-07T10:43:46;9.57;;;5.93;;
26082;SDS011;13848;49.018;12.078;2022-12-07T10:52:05;12.73;;;5.75;;
26082;SDS011;13848;49.018;12.078;2022-12-07T10:54:40;9.40;;;5.80;;
26082;SDS011;13848;49.018;12.078;2022-12-07T10:57:18;10.10;;;5.93;;
26082;SDS011;13848;49.018;12.078;2022-12-07T10:59:58;10.98;;;6.38;;
26082;SDS011;13848;49.018;12.078;2022-12-07T11:02:37;9.73;;;5.65;;
26082;SDS011;13848;49.018;12.078;2022-12-07T11:05:18;8.88;;;5.45;;
26082;SDS011;13848;49.018;12.078;2022-12-07T11:07:55;10.25;;;5.38;;
26082;SDS011;13848;49.018;12.078;2022-12-07T11:10:31;7.95;;;4.40;;
26082;SDS011;13848;49.018;12.078;2022-12-07T11:16:08;12.05;;;6.10;;
26082;SDS011;13848;49.018;12.078;2022-12-07T11:18:55;7.53;;;4.50;;
26082;SDS011;13848;49.018;12.078;2022-12-07T11:21:30;11.30;;;4.68;;
26082;SDS011;13848;49.018;12.078;2022-12-07T11:24:05;10.13;;;4.82;;
26082;SDS011;13848;49.018;12.078;2022-12-07T11:26:50;11.15;;;5.38;;
26082;SDS011;13848;49.018;12.078;2022-12-07T11:29:33;9.23;;;4.97;;
26082;SDS011;13848;49.018;12.078;2022-12-07T11:32:17;8.82;;;5.50;;
26082;SDS011;13848;49.018;12.078;2022-12-07T11:34:55;8.60;;;4.93;;
26082;SDS011;13848;49.018;12.078;2022-12-07T11:37:30;8.55;;;4.78;;
26082;SDS011;13848;49.018;12.078;2022-12-07T11:39:59;7.43;;;5.00;;
26082;SDS011;13848;49.018;12.078;2022-12-07T11:42:29;9.35;;;4.85;;
26082;SDS011;13848;49.018;12.078;2022-12-07T11:44:59;8.30;;;5.10;;
26082;SDS011;13848;49.018;12.078;2022-12-07T11:47:30;7.55;;;4.57;;
26082;SDS011;13848;49.018;12.078;2022-12-07T11:50:10;8.10;;;3.88;;
26082;SDS011;13848;49.018;12.078;2022-12-07T11:52:51;6.25;;;3.92;;
26082;SDS011;13848;49.018;12.078;2022-12-07T11:55:24;8.32;;;4.35;;
26082;SDS011;13848;49.018;12.078;2022-12-07T11:57:56;6.93;;;4.38;;
26082;SDS011;13848;49.018;12.078;2022-12-07T12:00:28;7.40;;;4.38;;
26082;SDS011;13848;49.018;12.078;2022-12-07T12:02:55;9.00;;;4.43;;
26082;SDS011;13848;49.018;12.078;2022-12-07T12:05:28;7.57;;;4.15;;
26082;SDS011;13848;49.018;12.078;2022-12-07T12:07:57;8.25;;;4.43;;
26082;SDS011;13848;49.018;12.078;2022-12-07T12:10:35;7.43;;;4.35;;
26082;SDS011;13848;49.018;12.078;2022-12-07T12:13:19;8.90;;;4.60;;
26082;SDS011;13848;49.018;12.078;2022-12-07T12:15:59;11.63;;;3.95;;
26082;SDS011;13848;49.018;12.078;2022-12-07T12:18:37;7.18;;;4.55;;
26082;SDS011;13848;49.018;12.078;2022-12-07T12:21:17;6.65;;;4.45;;
26082;SDS011;13848;49.018;12.078;2022-12-07T12:23:45;6.05;;;4.25;;
26082;SDS011;13848;49.018;12.078;2022-12-07T12:26:16;7.20;;;4.65;;
26082;SDS011;13848;49.018;12.078;2022-12-07T12:28:49;8.25;;;4.75;;
26082;SDS011;13848;49.018;12.078;2022-12-07T12:31:30;6.97;;;4.20;;
26082;SDS011;13848;49.018;12.078;2022-12-07T12:33:59;7.68;;;4.55;;
26082;SDS011;13848;49.018;12.078;2022-12-07T12:36:42;7.57;;;4.50;;
26082;SDS011;13848;49.018;12.078;2022-12-07T12:39:11;8.85;;;5.03;;
26082;SDS011;13848;49.018;12.078;2022-12-07T12:41:54;7.72;;;4.68;;
26082;SDS011;13848;49.018;12.078;2022-12-07T12:44:39;9.00;;;4.82;;
26082;SDS011;13848;49.018;12.078;2022-12-07T12:50:19;7.20;;;4.07;;
26082;SDS011;13848;49.018;12.078;2022-12-07T12:52:54;10.30;;;5.20;;
26082;SDS011;13848;49.018;12.078;2022-12-07T12:58:38;7.45;;;4.40;;
26082;SDS011;13848;49.018;12.078;2022-12-07T13:04:26;8.05;;;4.32;;
26082;SDS011;13848;49.018;12.078;2022-12-07T13:07:47;13.18;;;4.65;;
26082;SDS011;13848;49.018;12.078;2022-12-07T13:10:21;7.30;;;4.90;;
26082;SDS011;13848;49.018;12.078;2022-12-07T13:12:57;7.82;;;4.65;;
26082;SDS011;13848;49.018;12.078;2022-12-07T13:15:36;8.38;;;4.57;;
26082;SDS011;13848;49.018;12.078;2022-12-07T13:18:04;8.13;;;4.20;;
26082;SDS011;13848;49.018;12.078;2022-12-07T13:21:00;8.07;;;4.68;;
26082;SDS011;13848;49.018;12.078;2022-12-07T13:23:31;8.95;;;4.57;;
26082;SDS011;13848;49.018;12.078;2022-12-07T13:26:04;8.38;;;4.35;;
26082;SDS011;13848;49.018;12.078;2022-12-07T13:28:38;9.05;;;4.72;;
26082;SDS011;13848;49.018;12.078;2022-12-07T13:33:52;6.75;;;4.13;;
26082;SDS011;13848;49.018;12.078;2022-12-07T13:36:19;8.18;;;4.93;;
26082;SDS011;13848;49.018;12.078;2022-12-07T13:38:49;7.78;;;4.10;;
26082;SDS011;13848;49.018;12.078;2022-12-07T13:41:19;7.28;;;4.43;;
26082;SDS011;13848;49.018;12.078;2022-12-07T13:43:49;10.70;;;4.72;;
26082;SDS011;13848;49.018;12.078;2022-12-07T13:46:17;7.40;;;4.43;;
26082;SDS011;13848;49.018;12.078;2022-12-07T13:48:49;8.35;;;4.80;;
26082;SDS011;13848;49.018;12.078;2022-12-07T13:51:20;9.75;;;5.13;;
26082;SDS011;13848;49.018;12.078;2022-12-07T13:53:48;7.63;;;4.40;;
26082;SDS011;13848;49.018;12.078;2022-12-07T13:56:16;7.82;;;4.60;;
26082;SDS011;13848;49.018;12.078;2022-12-07T13:58:44;7.03;;;4.22;;
26082;SDS011;13848;49.018;12.078;2022-12-07T14:01:10;8.20;;;4.65;;
26082;SDS011;13848;49.018;12.078;2022-12-07T14:03:36;7.65;;;4.10;;
26082;SDS011;13848;49.018;12.078;2022-12-07T14:06:03;8.02;;;4.55;;
26082;SDS011;13848;49.018;12.078;2022-12-07T14:08:39;7.88;;;4.25;;
26082;SDS011;13848;49.018;12.078;2022-12-07T14:11:05;8.80;;;4.53;;
26082;SDS011;13848;49.018;12.078;2022-12-07T14:13:36;10.02;;;4.35;;
26082;SDS011;13848;49.018;12.078;2022-12-07T14:16:26;7.78;;;4.05;;
26082;SDS011;13848;49.018;12.078;2022-12-07T14:18:53;8.93;;;4.13;;
26082;SDS011;13848;49.018;12.078;2022-12-07T14:21:21;6.18;;;3.78;;
26082;SDS011;13848;49.018;12.078;2022-12-07T14:24:01;6.63;;;4.00;;
26082;SDS011;13848;49.018;12.078;2022-12-07T14:26:33;8.40;;;4.82;;
26082;SDS011;13848;49.018;12.078;2022-12-07T14:31:49;6.68;;;3.95;;
26082;SDS011;13848;49.018;12.078;2022-12-07T14:34:15;8.48;;;4.38;;
26082;SDS011;13848;49.018;12.078;2022-12-07T14:36:41;6.80;;;4.00;;
26082;SDS011;13848;49.018;12.078;2022-12-07T14:39:07;11.45;;;5.35;;
26082;SDS011;13848;49.018;12.078;2022-12-07T14:41:33;11.27;;;6.13;;
26082;SDS011;13848;49.018;12.078;2022-12-07T14:43:59;16.08;;;5.45;;
26082;SDS011;13848;49.018;12.078;2022-12-07T14:46:25;9.35;;;4.88;;
26082;SDS011;13848;49.018;12.078;2022-12-07T14:48:52;10.15;;;5.15;;
26082;SDS011;13848;49.018;12.078;2022-12-07T14:51:18;8.73;;;4.80;;
26082;SDS011;13848;49.018;12.078;2022-12-07T14:53:45;7.50;;;4.40;;
26082;SDS011;13848;49.018;12.078;2022-12-07T14:56:14;7.03;;;4.05;;
26082;SDS011;13848;49.018;12.078;2022-12-07T14:58:40;6.82;;;4.30;;
26082;SDS011;13848;49.018;12.078;2022-12-07T15:01:06;8.40;;;4.07;;
26082;SDS011;13848;49.018;12.078;2022-12-07T15:03:32;7.03;;;4.05;;
26082;SDS011;13848;49.018;12.078;2022-12-07T15:05:59;7.70;;;4.53;;
26082;SDS011;13848;49.018;12.078;2022-12-07T15:08:25;7.93;;;3.67;;
26082;SDS011;13848;49.018;12.078;2022-12-07T15:10:52;7.53;;;4.20;;
26082;SDS011;13848;49.018;12.078;2022-12-07T15:13:18;8.50;;;3.47;;
26082;SDS011;13848;49.018;12.078;2022-12-07T15:15:44;9.50;;;3.90;;
26082;SDS011;13848;49.018;12.078;2022-12-07T15:18:11;8.73;;;4.13;;